Flight Track Log - Related Links

Times and Time Zones

All times are in EDT time to prevent confusion due to time zone crossing. See the N449ND flight status page for this flight to view local times or setup timezone preferences in your user account.

Time Position Orientation Groundspeed Altitude Reporting Facility
EDT Latitude Longitude Course Direction KTS MPH feet Rate Location/Type
Wed 03:44:03 PM 27.4983 -80.3569 89° East 100 115 500  Level Miami Center
Wed 03:45:03 PM 27.4986 -80.3358 89° East 86 99 1,100 550 Climbing Miami Center
Wed 03:46:03 PM 27.4994 -80.3103 88° East 80 92 1,600 500 Climbing Miami Center
Wed 03:47:03 PM 27.4997 -80.2892 89° East 75 86 2,100 600 Climbing Miami Center
Wed 03:48:03 PM 27.5006 -80.2633 88° East 75 86 2,800 450 Climbing Miami Center
Wed 03:49:03 PM 27.5189 -80.2733 334° Northwest 43 49 3,000 100 Climbing Miami Center
Wed 03:50:03 PM 27.5350 -80.3042 301° West 100 115 3,000  Level Miami Center
Wed 03:51:03 PM 27.5511 -80.3306 305° West 112 129 3,000  Level Miami Center
Wed 03:52:03 PM 27.5714 -80.3569 311° West 117 135 3,000  Level Miami Center
Wed 03:53:03 PM 27.5875 -80.3761 313° West 111 128 3,000  Level Miami Center
Wed 03:54:03 PM 27.5886 -80.4183 272° West 100 115 3,000  Level Miami Center
Wed 03:55:03 PM 27.5714 -80.4436 232° Southwest 105 121 3,000  Level Miami Center
Wed 03:56:03 PM 27.5642 -80.4739 255° West 110 127 3,000  Level Miami Center
Wed 03:57:03 PM 27.5633 -80.5089 268° West 110 127 3,000  Level Miami Center
Wed 03:58:03 PM 27.5728 -80.5444 287° West 110 127 3,000 -45 Level Miami Center
Wed 03:59:15 PM 27.5889 -80.5731 302° West 110 127 2,900  Descending Miami Center
Wed 04:00:15 PM 27.6133 -80.5994 316° Northwest 110 127 3,000 50 Climbing Miami Center
Wed 04:01:15 PM 27.6397 -80.6214 324° Northwest 110 127 3,000  Level Miami Center
Wed 04:02:15 PM 27.6689 -80.6272 350° North 105 121 3,000  Level Miami Center
Wed 04:03:15 PM 27.7003 -80.6258 North 105 121 3,000  Level Miami Center
Wed 04:04:15 PM 27.7133 -80.6028 57° Northeast 88 101 3,000 -273 Level Miami Center
Wed 04:05:27 PM 27.7056 -80.5767 109° East 80 92 2,400 -818 Descending Miami Center
Wed 04:06:27 PM 27.6942 -80.5411 110° East 92 106 1,200 -600 Descending Miami Center
Wed 04:07:27 PM 27.6864 -80.5175 110° East 92 106 1,200  Level Miami Center
Wed 04:08:27 PM 27.6806 -80.4986 109° East 86 99 1,200 -200 Level Miami Center
Wed 04:09:27 PM 27.6708 -80.4725 113° Southeast 75 86 800 900 Descending Miami Center
Wed 04:10:27 PM 27.6647 -80.4583 116° Southeast 75 86 3,000 -200 Climbing Miami Center
Wed 04:11:27 PM 27.6572 -80.4297 106° East 70 81 400 -1,000 Descending Miami Center
Wed 04:12:27 PM 27.6514 -80.4086 107° East 70 81 1,000 600 Climbing Miami Center
Wed 04:13:27 PM 27.6478 -80.3850 100° East 70 81 1,600 550 Climbing Miami Center
Wed 04:14:27 PM 27.6444 -80.3592 98° East 70 81 2,100 500 Climbing Miami Center
Wed 04:15:27 PM 27.6386 -80.3356 106° East 70 81 2,600 400 Climbing Miami Center
Wed 04:16:27 PM 27.6350 -80.3142 101° East 75 86 2,900 150 Climbing Miami Center
Wed 04:17:27 PM 27.6419 -80.2864 74° East 81 93 2,900  Level Miami Center
Wed 04:18:27 PM 27.6561 -80.3056 310° West 95 109 2,900 50 Level Miami Center
Wed 04:19:27 PM 27.6739 -80.3458 296° West 100 115 3,000 50 Climbing Miami Center
Wed 04:20:27 PM 27.6900 -80.3744 302° West 106 122 3,000  Level Miami Center
Wed 04:21:27 PM 27.7039 -80.4008 301° West 111 128 3,000  Level Miami Center
Wed 04:22:27 PM 27.7197 -80.4317 300° West 111 128 3,000  Level Miami Center
Wed 04:23:27 PM 27.7378 -80.4675 300° West 111 128 3,000  Level Miami Center
Wed 04:24:27 PM 27.7536 -80.4986 300° West 111 128 3,000  Level Miami Center
Wed 04:25:27 PM 27.7694 -80.5294 300° West 116 133 3,000 -250 Level Miami Center
Wed 04:26:27 PM 27.7833 -80.5558 301° West 116 133 2,500 -500 Descending Miami Center
Wed 04:27:39 PM 27.7889 -80.5842 283° West 110 127 1,900 -182 Descending Miami Center
Wed 04:28:39 PM 27.7614 -80.5997 207° Southwest 86 99 2,100 50 Climbing Miami Center
Wed 04:29:39 PM 27.7278 -80.6125 199° South 105 121 2,000 -250 Descending Miami Center
Wed 04:30:39 PM 27.7136 -80.5958 134° Southeast 89 102 1,600 -250 Descending Miami Center
Wed 04:31:39 PM 27.7039 -80.5697 113° Southeast 84 97 1,500 -100 Descending Miami Center
Wed 04:32:39 PM 27.6942 -80.5389 110° East 89 102 1,400  Descending Miami Center
Wed 04:33:39 PM 27.6864 -80.5175 112° Southeast 89 102 1,500 -100 Climbing Miami Center
Wed 04:34:39 PM 27.6786 -80.4961 112° Southeast 78 90 1,200 -450 Descending Miami Center
Wed 04:35:39 PM 27.6728 -80.4750 107° East 71 82 600 -400 Descending Miami Center
Wed 04:36:39 PM 27.6650 -80.4511 110° East 71 82 400 -50 Descending Miami Center
Wed 04:37:39 PM 27.6592 -80.4369 115° Southeast 71 82 500 400 Climbing Miami Center
Wed 04:38:39 PM 27.6536 -80.4086 102° East 71 82 1,200 650 Climbing Miami Center
Wed 04:39:39 PM 27.6519 -80.3850 95° East 71 82 1,800 900 Climbing Miami Center
Wed 04:40:39 PM 27.6483 -80.3617 100° East 76 87 3,000 450 Climbing Miami Center
Wed 04:41:39 PM 27.6450 -80.3333 98° East 76 87 2,700  Descending Miami Center
Wed 04:42:39 PM 27.6392 -80.3075 104° East 76 87 3,000 150 Climbing Miami Center
Wed 04:43:39 PM 27.6208 -80.2975 154° Southeast 81 93 3,000  Level Miami Center
Wed 04:44:39 PM 27.6200 -80.3303 268° West 54 62 3,000  Level Miami Center
Wed 04:45:39 PM 27.6150 -80.3628 260° West 88 101 3,000  Level Miami Center
Wed 04:46:39 PM 27.6097 -80.4025 261° West 121 139 3,000  Level Miami Center
Wed 04:47:51 PM 27.6028 -80.4353 257° West 121 139 3,000  Level Miami Center
Wed 04:48:51 PM 27.5997 -80.4725 265° West 121 139 3,000  Level Miami Center
Wed 04:49:51 PM 27.5928 -80.5053 257° West 121 139 3,000  Level Miami Center
Wed 04:50:51 PM 27.5897 -80.5425 265° West 121 139 3,000 -150 Level Miami Center
Wed 04:51:51 PM 27.5847 -80.5753 260° West 115 132 2,700 -500 Descending Miami Center
Wed 04:52:51 PM 27.5736 -80.6006 244° Southwest 108 124 2,000 -300 Descending Miami Center
Wed 04:53:51 PM 27.5486 -80.5950 169° South 80 92 2,100 50 Climbing Miami Center
Wed 04:54:51 PM 27.5194 -80.5964 182° South 100 115 2,100 -50 Level Miami Center
Wed 04:55:51 PM 27.4989 -80.5817 148° Southeast 95 109 2,000 -150 Descending Miami Center
Wed 04:56:51 PM 27.4997 -80.5536 88° East 78 90 1,800 -50 Descending Miami Center
Wed 04:57:51 PM 27.4983 -80.5256 93° East 90 104 1,900  Climbing Miami Center
Wed 04:58:51 PM 27.4989 -80.4953 89° East 95 109 1,800 -200 Descending Miami Center
Wed 04:59:51 PM 27.4997 -80.4669 88° East 90 104 1,500 -450 Descending Miami Center
Wed 05:00:51 PM 27.4981 -80.4483 96° East 80 92 900 -400 Descending Miami Center
Wed 05:01:51 PM 27.4989 -80.4178 88° East 80 92 700 -250 Descending Miami Center
Wed 05:02:51 PM 27.4972 -80.3967 95° East 80 92 400 -100 Descending Miami Center
Wed 05:03:51 PM 27.4978 -80.3781 88° East 80 92 500 375 Climbing Miami Center
Wed 05:05:15 PM 27.4728 -80.3750 174° South 56 64 1,300 625 Climbing Miami Center
Wed 05:06:15 PM 27.4475 -80.3811 192° South 82 94 2,000 364 Climbing Miami Center
Wed 05:07:27 PM 27.4183 -80.3850 187° South 92 106 2,100  Climbing Miami Center
Wed 05:08:27 PM 27.4111 -80.4244 258° West 92 106 2,000 -50 Descending Miami Center
Wed 05:09:27 PM 27.4103 -80.4550 268° West 111 128 2,000  Level Miami Center
Wed 05:10:27 PM 27.4092 -80.4922 268° West 117 135 2,000  Level Miami Center
Wed 05:11:27 PM 27.4086 -80.5203 269° West 122 140 2,000  Level Miami Center
Wed 05:12:27 PM 27.4075 -80.5672 268° West 122 140 2,000  Level Miami Center
Wed 05:13:27 PM 27.4106 -80.6022 276° West 117 135 2,000  Level Miami Center
Wed 05:14:39 PM 27.4397 -80.6081 350° North 91 105 2,000  Level Miami Center
Wed 05:15:39 PM 27.4792 -80.6139 353° North 111 128 2,000  Level Miami Center
Wed 05:16:39 PM 27.5025 -80.6053 18° North 96 110 2,000 -50 Level Miami Center
Wed 05:17:39 PM 27.4992 -80.5747 97° East 75 86 1,900 -100 Descending Miami Center
Wed 05:18:39 PM 27.4997 -80.5467 89° East 96 110 1,800  Descending Miami Center
Wed 05:19:39 PM 27.4986 -80.5139 92° East 96 110 1,900  Climbing Miami Center
Wed 05:20:39 PM 27.4972 -80.4858 93° East 96 110 1,800 -250 Descending Miami Center
Wed 05:21:39 PM 27.4978 -80.4622 88° East 86 99 1,400 -400 Descending Miami Center
Wed 05:22:39 PM 27.4983 -80.4389 88° East 81 93 1,000 -350 Descending Miami Center
Wed 05:23:39 PM 27.4989 -80.4156 88° East 81 93 700 -400 Descending Miami Center
Wed 05:24:39 PM 27.4975 -80.3897 93° East 81 93 200 -500 Descending Miami Center
Wed 05:26:00 PM 27.4893 -80.3763 125° Southeast  Level FlightAware Approximate

Login

Don't have an account? Register now (free) for customized features, flight alerts, and more!